Time;durP1;ratioP1;P1;durP2;ratioP2;P2;SDS_P1;SDS_P2;PMS_P1;PMS_P2;Temp;Humidity;BMP_temperature;BMP_pressure;BME280_temperature;BME280_humidity;BME280_pressure;Samples;Min_cycle;Max_cycle;Signal;HPM_P1;HPM_P2
2022/06/24 00:00:40;;;;;;;15.35;9.95;;;;;;;15.08;67.95;100436.65;1789597;80;25811;-63
2022/06/24 00:03:07;;;;;;;13.38;9.75;;;;;;;15.05;67.87;100437.89;1789360;80;25664;-63
2022/06/24 00:05:36;;;;;;;14.53;9.95;;;;;;;15.03;67.86;100437.44;1789463;78;27422;-65
2022/06/24 00:08:04;;;;;;;12.60;9.80;;;;;;;14.99;67.84;100440.61;1789768;80;25617;-65
2022/06/24 00:10:34;;;;;;;14.53;9.13;;;;;;;14.96;67.77;100438.55;1763085;80;25584;-65
2022/06/24 00:13:00;;;;;;;;;;;;;;;14.94;67.90;100438.88;1792512;80;25754;-63
2022/06/24 00:15:34;;;;;;;15.05;9.35;;;;;;;14.92;68.11;100441.94;1789662;80;25654;-65
2022/06/24 00:18:19;;;;;;;15.20;8.68;;;;;;;14.88;68.37;100436.94;1789419;80;27562;-63
2022/06/24 00:20:49;;;;;;;13.13;9.40;;;;;;;14.81;68.37;100438.02;1790061;80;25485;-64
2022/06/24 00:23:19;;;;;;;14.25;9.03;;;;;;;14.77;68.08;100434.95;1778811;80;25643;-63
2022/06/24 00:25:49;;;;;;;;;;;;;;;14.74;68.35;100433.14;1765663;80;25696;-62
2022/06/24 00:28:16;;;;;;;15.00;8.98;;;;;;;14.73;68.83;100437.55;1788433;78;25455;-62
2022/06/24 00:30:52;;;;;;;12.93;9.68;;;;;;;14.66;68.76;100435.91;1811168;78;27285;-62
2022/06/24 00:33:20;;;;;;;13.20;8.83;;;;;;;14.56;68.78;100440.61;1788366;78;25554;-62
2022/06/24 00:35:53;;;;;;;12.78;9.20;;;;;;;14.52;69.10;100445.13;1792383;78;25577;-62
2022/06/24 00:38:36;;;;;;;14.40;8.95;;;;;;;14.48;69.12;100442.83;1800760;78;26150;-62
2022/06/24 00:41:06;;;;;;;11.12;8.93;;;;;;;14.43;69.37;100443.02;1814240;78;25392;-62
2022/06/24 00:43:42;;;;;;;13.08;9.00;;;;;;;14.38;69.12;100439.92;1812541;78;28089;-64
2022/06/24 00:46:25;;;;;;;10.80;8.43;;;;;;;14.33;69.47;100436.04;1790987;78;25741;-63
2022/06/24 00:48:56;;;;;;;12.50;9.25;;;;;;;14.30;69.66;100441.34;1805491;78;25564;-63
2022/06/24 00:51:23;;;;;;;11.80;8.63;;;;;;;14.25;69.68;100441.55;1810393;78;26546;-62
2022/06/24 00:53:56;;;;;;;11.33;9.05;;;;;;;14.18;69.64;100437.98;1763907;80;25675;-64
2022/06/24 00:56:28;;;;;;;11.57;8.55;;;;;;;14.14;70.14;100443.28;1784653;79;27503;-63
2022/06/24 00:58:58;;;;;;;11.30;8.88;;;;;;;14.14;70.26;100444.64;1771533;80;25461;-63
2022/06/24 01:01:39;;;;;;;11.65;8.53;;;;;;;14.10;70.45;100441.58;1785469;80;25633;-63
2022/06/24 01:04:09;;;;;;;11.50;8.88;;;;;;;14.09;70.67;100442.11;1772831;80;26158;-64
2022/06/24 01:06:39;;;;;;;12.20;8.23;;;;;;;14.09;70.84;100440.76;1788431;80;25616;-64
2022/06/24 01:09:11;;;;;;;13.75;9.28;;;;;;;14.07;71.02;100436.78;1788396;80;27339;-62
2022/06/24 01:11:40;;;;;;;13.55;8.90;;;;;;;14.06;71.06;100441.41;1787836;80;25764;-62
2022/06/24 01:14:07;;;;;;;11.53;8.38;;;;;;;14.07;71.02;100435.42;1788409;80;25751;-62
2022/06/24 01:16:34;;;;;;;13.13;8.65;;;;;;;14.08;71.20;100433.74;1788403;79;25744;-65
2022/06/24 01:19:06;;;;;;;11.85;8.08;;;;;;;14.10;71.27;100434.20;1788352;80;25451;-64
2022/06/24 01:21:35;;;;;;;12.00;7.53;;;;;;;14.10;71.27;100435.56;1786930;80;27864;-65
2022/06/24 01:24:15;;;;;;;11.75;8.30;;;;;;;14.06;71.10;100434.61;1788473;79;25714;-65
2022/06/24 01:26:48;;;;;;;11.40;7.80;;;;;;;14.04;71.15;100434.14;1788420;80;26143;-64
2022/06/24 01:29:15;;;;;;;15.98;8.48;;;;;;;14.02;71.21;100433.69;1788332;80;25700;-63
2022/06/24 01:31:45;;;;;;;10.20;7.78;;;;;;;14.02;71.43;100436.41;1788323;79;25628;-63
2022/06/24 01:34:11;;;;;;;9.50;8.15;;;;;;;14.01;71.72;100428.81;1788500;79;28011;-63
2022/06/24 01:36:38;;;;;;;9.85;8.13;;;;;;;14.02;71.64;100435.05;1788337;79;25627;-63
2022/06/24 01:39:05;;;;;;;10.43;8.48;;;;;;;14.02;71.76;100432.32;1765535;80;25529;-63
2022/06/24 01:41:31;;;;;;;9.40;7.75;;;;;;;13.97;71.72;100427.08;1760643;80;25810;-63
2022/06/24 01:43:58;;;;;;;11.25;8.35;;;;;;;13.95;71.71;100434.20;1788388;79;25555;-63
2022/06/24 01:46:25;;;;;;;13.93;8.83;;;;;;;13.93;71.88;100432.95;1788183;80;27294;-63
2022/06/24 01:48:51;;;;;;;10.13;7.58;;;;;;;13.90;71.90;100428.95;1788283;79;25687;-63
2022/06/24 01:51:21;;;;;;;9.55;8.03;;;;;;;13.88;71.92;100423.62;1790812;78;25583;-63
2022/06/24 01:53:47;;;;;;;8.03;7.22;;;;;;;13.88;72.14;100428.48;1810303;78;26315;-63
2022/06/24 01:56:13;;;;;;;11.35;7.53;;;;;;;13.84;71.93;100428.88;1807348;78;25564;-63
2022/06/24 01:58:40;;;;;;;9.45;7.30;;;;;;;13.82;72.11;100432.50;1813559;78;29485;-63
2022/06/24 02:01:06;;;;;;;9.83;7.35;;;;;;;13.81;72.31;100434.43;1792544;78;25858;-63
2022/06/24 02:03:41;;;;;;;10.98;7.75;;;;;;;13.77;72.06;100433.50;1796564;78;25463;-64
2022/06/24 02:06:08;;;;;;;9.23;8.20;;;;;;;13.75;72.13;100433.58;1807497;78;26146;-62
2022/06/24 02:08:34;;;;;;;8.03;6.92;;;;;;;13.72;72.32;100428.79;1814864;78;25594;-62
2022/06/24 02:13:47;;;;;;;8.80;7.20;;;;;;;13.66;72.29;100431.47;1797814;78;25735;-62
2022/06/24 02:16:15;;;;;;;8.85;7.60;;;;;;;13.59;72.22;100423.25;1807122;78;25408;-62
2022/06/24 02:18:41;;;;;;;8.98;7.40;;;;;;;13.56;72.35;100432.63;1800573;78;25608;-62
2022/06/24 02:21:08;;;;;;;8.78;7.03;;;;;;;13.54;72.34;100432.16;1788133;78;25621;-62
2022/06/24 02:23:35;;;;;;;9.55;6.97;;;;;;;13.53;72.37;100433.27;1810682;78;27951;-62
2022/06/24 02:26:01;;;;;;;7.55;6.67;;;;;;;13.53;72.67;100434.05;1793726;79;25657;-62
2022/06/24 02:28:28;;;;;;;8.30;7.05;;;;;;;13.52;72.76;100434.38;1801817;79;25632;-62
2022/06/24 02:30:58;;;;;;;9.23;7.28;;;;;;;13.51;72.65;100436.30;1797242;78;26140;-62
2022/06/24 02:33:25;;;;;;;9.48;7.25;;;;;;;13.54;72.74;100453.89;1788093;78;25690;-62
2022/06/24 02:35:52;;;;;;;10.00;7.25;;;;;;;13.51;72.72;100451.25;1819603;78;27317;-62
2022/06/24 02:38:18;;;;;;;8.43;6.60;;;;;;;13.52;72.77;100452.03;1807280;78;25520;-62
2022/06/24 02:40:51;;;;;;;9.50;7.12;;;;;;;13.51;72.73;100446.38;1796916;79;25417;-62
2022/06/24 02:43:32;;;;;;;12.25;7.62;;;;;;;13.50;72.54;100447.50;1790020;78;25856;-62
2022/06/24 02:46:04;;;;;;;12.75;7.00;;;;;;;13.49;72.35;100448.64;1785739;78;25686;-62
2022/06/24 02:48:34;;;;;;;7.97;6.97;;;;;;;13.47;72.24;100454.39;1801734;79;27337;-62
2022/06/24 02:51:04;;;;;;;;;;;;;;;13.45;72.21;100461.51;1794666;78;25398;-62
2022/06/24 02:53:31;;;;;;;9.18;7.70;;;;;;;13.42;72.40;100456.71;1801383;79;25628;-62
2022/06/24 02:56:02;;;;;;;10.48;7.78;;;;;;;13.38;72.37;100456.31;1802029;79;25567;-62
2022/06/24 02:58:30;;;;;;;11.38;7.65;;;;;;;13.36;72.38;100463.43;1802125;79;25562;-63
2022/06/24 03:00:59;;;;;;;10.35;7.53;;;;;;;13.34;72.42;100463.53;1802053;79;27277;-63
2022/06/24 03:03:27;;;;;;;11.10;7.22;;;;;;;13.31;72.22;100463.57;1801922;79;25379;-63
2022/06/24 03:05:53;;;;;;;8.98;7.03;;;;;;;13.28;72.50;100466.95;1802093;79;25424;-63
2022/06/24 03:08:22;;;;;;;12.00;7.78;;;;;;;13.25;72.45;100463.52;1802052;79;25626;-63
2022/06/24 03:10:50;;;;;;;10.60;6.97;;;;;;;13.24;72.78;100459.20;1802192;79;25625;-63
2022/06/24 03:13:17;;;;;;;11.20;7.30;;;;;;;13.24;72.80;100465.42;1801956;79;27376;-63
2022/06/24 03:15:45;;;;;;;9.95;7.87;;;;;;;13.23;72.99;100463.84;1801876;79;25436;-63
2022/06/24 03:18:14;;;;;;;9.30;7.08;;;;;;;13.24;73.01;100468.14;1802020;79;25703;-63
2022/06/24 03:20:41;;;;;;;10.43;7.30;;;;;;;13.26;73.09;100469.17;1802160;79;25677;-63
2022/06/24 03:23:07;;;;;;;9.78;6.87;;;;;;;13.27;73.40;100468.06;1802062;79;25620;-63
2022/06/24 03:25:33;;;;;;;11.08;7.60;;;;;;;13.29;73.45;100466.39;1801937;79;27334;-63
2022/06/24 03:28:04;;;;;;;9.73;7.40;;;;;;;13.30;73.51;100468.78;1801989;79;33440;-63
2022/06/24 03:30:34;;;;;;;8.73;7.30;;;;;;;13.31;73.70;100471.72;1801999;79;25461;-63
2022/06/24 03:33:01;;;;;;;9.55;6.97;;;;;;;13.32;73.76;100469.28;1802017;79;25695;-63
2022/06/24 03:35:28;;;;;;;9.05;7.25;;;;;;;13.35;73.75;100474.08;1802038;79;25612;-65
2022/06/24 03:37:54;;;;;;;8.50;7.12;;;;;;;13.38;73.86;100472.08;1802161;79;27284;-63
2022/06/24 03:40:20;;;;;;;9.55;6.83;;;;;;;13.41;74.01;100466.55;1802070;79;33063;-63
2022/06/24 03:42:46;;;;;;;10.55;7.08;;;;;;;13.42;73.99;100470.30;1802234;79;25486;-63
2022/06/24 03:45:12;;;;;;;10.23;7.33;;;;;;;13.45;74.03;100471.59;1802149;79;25678;-63
2022/06/24 03:47:38;;;;;;;8.93;6.75;;;;;;;13.49;74.08;100469.02;1802219;79;25632;-64
2022/06/24 03:50:06;;;;;;;11.25;7.40;;;;;;;13.53;74.21;100472.67;1802220;79;28124;-65
2022/06/24 03:52:32;;;;;;;9.45;7.58;;;;;;;13.56;74.43;100472.81;1802019;79;25445;-65
2022/06/24 03:54:58;;;;;;;12.03;7.62;;;;;;;13.60;74.47;100473.78;1788900;78;27247;-63
2022/06/24 03:57:24;;;;;;;10.60;7.67;;;;;;;13.67;74.56;100476.53;1788158;78;26350;-63
2022/06/24 03:59:50;;;;;;;9.95;7.05;;;;;;;13.73;74.84;100477.39;1799770;78;25611;-63
2022/06/24 04:02:17;;;;;;;8.93;7.72;;;;;;;13.82;75.06;100473.28;1795789;78;27382;-65
2022/06/24 04:04:43;;;;;;;10.18;7.30;;;;;;;13.90;75.33;100479.81;1812421;78;25483;-63
2022/06/24 04:07:09;;;;;;;9.10;7.35;;;;;;;13.98;75.39;100481.14;1813914;78;25483;-63
2022/06/24 04:09:35;;;;;;;11.00;7.50;;;;;;;14.07;75.51;100477.58;1814071;78;25652;-63
2022/06/24 04:12:02;;;;;;;9.38;7.15;;;;;;;14.17;75.66;100486.73;1799017;78;25382;-63
2022/06/24 04:17:12;;;;;;;12.20;7.42;;;;;;;14.37;75.87;100484.61;1820411;78;25724;-63
2022/06/24 04:19:38;;;;;;;9.95;8.03;;;;;;;14.49;75.87;100490.70;1820454;78;25388;-63
2022/06/24 04:22:05;;;;;;;11.75;8.00;;;;;;;14.60;75.62;100491.13;1816762;78;25697;-63
2022/06/24 04:24:32;;;;;;;12.35;7.80;;;;;;;14.71;75.49;100490.98;1811235;78;25558;-63
2022/06/24 04:26:58;;;;;;;12.85;7.53;;;;;;;14.85;75.47;100495.36;1805318;78;28111;-63
2022/06/24 04:29:24;;;;;;;12.63;7.70;;;;;;;14.96;75.59;100491.09;1796079;78;25466;-63
2022/06/24 04:31:50;;;;;;;9.50;6.92;;;;;;;15.09;75.24;100495.46;1811335;78;25538;-63
2022/06/24 04:34:16;;;;;;;13.50;7.05;;;;;;;15.23;75.24;100494.37;1820420;78;25701;-63
2022/06/24 04:36:42;;;;;;;9.70;6.67;;;;;;;15.35;75.45;100493.05;1820483;78;25382;-63
2022/06/24 04:39:08;;;;;;;8.88;6.55;;;;;;;15.49;75.46;100494.11;1796560;78;27504;-63
2022/06/24 04:41:34;;;;;;;12.13;6.70;;;;;;;15.63;75.15;100493.79;1820330;78;25800;-63
2022/06/24 04:44:00;;;;;;;8.00;6.08;;;;;;;15.76;74.93;100502.25;1808761;78;25603;-65
2022/06/24 04:46:27;;;;;;;9.75;6.20;;;;;;;15.91;74.58;100502.74;1801747;78;25702;-64
2022/06/24 04:48:53;;;;;;;8.83;6.30;;;;;;;16.04;74.46;100500.25;1794483;78;25414;-65
2022/06/24 04:51:19;;;;;;;7.53;5.83;;;;;;;16.17;74.09;100495.00;1815223;78;27408;-65
2022/06/24 04:53:45;;;;;;;8.30;5.17;;;;;;;16.31;73.97;100502.86;1796771;78;25442;-65
2022/06/24 04:56:12;;;;;;;9.88;5.53;;;;;;;16.49;74.02;100502.61;1788387;80;25399;-65
2022/06/24 04:58:38;;;;;;;8.23;5.30;;;;;;;16.62;73.86;100500.88;1788404;80;25629;-65
2022/06/24 05:01:04;;;;;;;8.85;5.87;;;;;;;16.77;73.40;100499.36;1788451;79;25728;-65
2022/06/24 05:03:30;;;;;;;8.83;4.90;;;;;;;16.92;73.10;100498.42;1766404;79;27316;-66
2022/06/24 05:05:56;;;;;;;7.05;5.00;;;;;;;17.06;72.74;100499.39;1788292;80;25835;-64
2022/06/24 05:08:22;;;;;;;9.45;5.55;;;;;;;17.21;72.08;100504.69;1788422;80;25374;-64
2022/06/24 05:10:48;;;;;;;6.92;4.83;;;;;;;17.37;72.11;100508.27;1788393;80;25677;-64
2022/06/24 05:13:14;;;;;;;8.25;5.12;;;;;;;17.52;71.40;100510.23;1788409;79;25616;-65
2022/06/24 05:15:40;;;;;;;5.90;4.37;;;;;;;17.67;70.74;100510.04;1788430;79;27340;-65
2022/06/24 05:18:08;;;;;;;11.20;4.90;;;;;;;17.82;70.24;100505.70;1788312;79;25590;-64
2022/06/24 05:20:34;;;;;;;7.05;4.20;;;;;;;17.99;69.52;100498.33;1788392;79;25653;-64
2022/06/24 05:23:00;;;;;;;5.85;4.08;;;;;;;18.13;69.54;100503.34;1788273;80;25855;-64
2022/06/24 05:25:26;;;;;;;6.80;4.75;;;;;;;18.28;69.57;100503.89;1788337;79;25385;-64
2022/06/24 05:27:52;;;;;;;6.35;4.50;;;;;;;18.45;69.18;100504.86;1788354;79;27968;-65
2022/06/24 05:30:18;;;;;;;5.10;4.00;;;;;;;18.65;68.36;100504.91;1785661;79;25653;-65
2022/06/24 05:32:44;;;;;;;5.28;3.52;;;;;;;18.88;68.12;100502.28;1757214;80;25463;-65
2022/06/24 05:35:11;;;;;;;4.22;3.83;;;;;;;19.14;67.63;100496.74;1778787;80;25850;-65
2022/06/24 05:37:38;;;;;;;5.05;3.33;;;;;;;19.40;66.90;100503.69;1788241;79;25441;-64
2022/06/24 05:40:07;;;;;;;4.40;4.00;;;;;;;19.65;65.86;100501.17;1775604;80;27284;-65
2022/06/24 05:42:34;;;;;;;5.20;3.50;;;;;;;19.86;65.58;100502.94;1780141;80;25634;-65
2022/06/24 05:45:01;;;;;;;4.55;3.08;;;;;;;20.08;65.36;100502.70;1788321;79;25467;-64
2022/06/24 05:47:27;;;;;;;5.62;3.70;;;;;;;20.31;64.78;100503.23;1788324;79;26495;-65
2022/06/24 05:49:53;;;;;;;5.95;3.65;;;;;;;20.49;64.07;100505.66;1766314;80;25386;-65
2022/06/24 05:55:02;;;;;;;4.37;3.50;;;;;;;20.65;63.58;100502.78;1788202;78;28154;-65
2022/06/24 05:57:22;;;;;;;3.50;3.10;;;;;;;20.96;62.55;100500.00;1756671;81;25632;-65
2022/06/24 05:59:48;;;;;;;3.83;3.40;;;;;;;21.12;61.96;100499.80;1756622;80;25909;-65
2022/06/24 06:02:15;;;;;;;8.53;4.42;;;;;;;21.27;61.17;100502.33;1756755;80;25609;-65
2022/06/24 06:04:41;;;;;;;6.90;3.33;;;;;;;21.41;61.15;100503.65;1756682;81;27402;-65
2022/06/24 06:07:07;;;;;;;4.15;3.37;;;;;;;21.54;60.28;100506.37;1756614;80;25617;-65
2022/06/24 06:09:33;;;;;;;6.47;3.25;;;;;;;21.69;60.23;100500.42;1756644;80;25456;-65
2022/06/24 06:12:00;;;;;;;5.12;3.20;;;;;;;21.86;59.40;100507.22;1756623;80;25792;-66
2022/06/24 06:14:26;;;;;;;4.87;3.00;;;;;;;21.97;58.30;100500.44;1756745;80;25691;-65
2022/06/24 06:16:52;;;;;;;3.47;3.10;;;;;;;22.09;57.85;100505.64;1756641;80;27312;-65
2022/06/24 06:19:18;;;;;;;9.38;2.58;;;;;;;22.22;57.90;100508.89;1756617;80;25494;-65
2022/06/24 06:21:45;;;;;;;6.00;3.50;;;;;;;22.38;56.50;100508.02;1756568;80;25693;-65
2022/06/24 06:24:11;;;;;;;6.65;2.62;;;;;;;22.51;57.02;100499.45;1756662;80;25583;-66
2022/06/24 06:26:37;;;;;;;5.30;3.55;;;;;;;22.67;56.00;100502.67;1756749;80;25486;-64
2022/06/24 06:29:04;;;;;;;5.37;2.92;;;;;;;22.79;55.45;100493.87;1756719;80;28013;-65
2022/06/24 06:31:32;;;;;;;7.10;2.92;;;;;;;22.93;55.37;100499.42;1756545;80;25546;-65
2022/06/24 06:33:58;;;;;;;6.42;2.77;;;;;;;23.05;54.93;100496.91;1762963;80;25633;-66
2022/06/24 06:36:25;;;;;;;4.72;2.40;;;;;;;23.17;54.32;100502.09;1773065;79;26311;-66
2022/06/24 06:38:51;;;;;;;5.33;2.58;;;;;;;23.29;54.59;100499.56;1782136;79;25417;-65
2022/06/24 06:41:18;;;;;;;5.25;2.62;;;;;;;23.45;53.49;100501.98;1781866;80;27442;-66
2022/06/24 06:43:44;;;;;;;4.70;2.85;;;;;;;23.52;53.36;100498.44;1743980;81;25804;-64
2022/06/24 06:46:12;;;;;;;7.27;3.80;;;;;;;23.66;53.43;100492.31;1783344;80;25528;-65
2022/06/24 06:48:40;;;;;;;2.67;2.40;;;;;;;23.81;52.22;100493.72;1742253;81;26388;-65
2022/06/24 06:51:06;;;;;;;5.70;2.85;;;;;;;23.95;52.86;100492.34;1773930;80;25553;-65
2022/06/24 06:53:32;;;;;;;5.45;2.55;;;;;;;24.12;51.82;100489.37;1795232;78;27342;-65
2022/06/24 06:55:59;;;;;;;5.58;2.55;;;;;;;24.26;51.32;100487.77;1819885;78;25702;-65
2022/06/24 06:58:25;;;;;;;5.30;2.80;;;;;;;24.40;50.65;100484.99;1817001;78;25727;-64
2022/06/24 07:00:51;;;;;;;3.80;2.08;;;;;;;24.55;50.31;100485.75;1809463;78;25747;-65
2022/06/24 07:03:19;;;;;;;3.15;2.20;;;;;;;24.69;50.04;100484.91;1814499;78;25651;-65
2022/06/24 07:05:45;;;;;;;6.08;2.58;;;;;;;24.89;50.42;100483.27;1800260;78;27320;-64
2022/06/24 07:08:13;;;;;;;3.55;2.30;;;;;;;25.07;49.62;100479.00;1810988;78;25625;-64
2022/06/24 07:10:41;;;;;;;4.17;2.22;;;;;;;25.27;48.86;100477.16;1778696;79;25573;-65
2022/06/24 07:13:07;;;;;;;5.80;2.10;;;;;;;25.42;47.88;100477.82;1814548;78;26357;-63
2022/06/24 07:15:33;;;;;;;2.47;2.25;;;;;;;25.55;47.98;100480.30;1816239;78;25627;-64
2022/06/24 07:18:01;;;;;;;6.45;2.40;;;;;;;25.74;47.80;100478.95;1814328;78;27374;-64
2022/06/24 07:20:27;;;;;;;3.62;2.10;;;;;;;25.92;46.47;100476.05;1806300;78;25645;-64
2022/06/24 07:22:54;;;;;;;4.55;2.17;;;;;;;26.05;46.69;100475.76;1800384;78;25632;-63
2022/06/24 07:25:20;;;;;;;7.83;2.45;;;;;;;26.16;45.03;100472.09;1814402;78;25731;-67
2022/06/24 07:27:47;;;;;;;2.35;1.87;;;;;;;26.30;45.16;100484.41;1814624;78;25713;-64
2022/06/24 07:30:14;;;;;;;5.28;1.95;;;;;;;26.37;44.08;100477.39;1819983;78;27301;-64
2022/06/24 07:32:40;;;;;;;2.10;1.95;;;;;;;26.50;43.24;100458.24;1819877;78;25620;-63
2022/06/24 07:35:08;;;;;;;2.40;2.20;;;;;;;26.49;41.61;100476.06;1820037;78;25650;-64
2022/06/24 07:37:34;;;;;;;2.25;1.85;;;;;;;26.50;42.00;100479.65;1809291;78;25820;-63
2022/06/24 07:40:00;;;;;;;5.97;2.08;;;;;;;26.59;42.05;100481.31;1798821;78;25603;-63
2022/06/24 07:42:26;;;;;;;3.58;1.85;;;;;;;26.66;42.16;100477.09;1813583;78;27473;-63
2022/06/24 07:44:52;;;;;;;4.75;1.70;;;;;;;26.79;41.92;100478.11;1819622;78;25818;-63
2022/06/24 07:47:18;;;;;;;3.22;2.00;;;;;;;26.90;41.22;100478.58;1819950;78;25712;-63
2022/06/24 07:49:44;;;;;;;3.33;1.90;;;;;;;27.00;40.83;100473.48;1819862;78;25854;-63
2022/06/24 07:52:11;;;;;;;2.12;1.70;;;;;;;27.14;40.73;100465.55;1810935;78;25673;-63
2022/06/24 07:54:38;;;;;;;2.05;1.85;;;;;;;27.22;40.02;100468.41;1791720;78;28175;-63
2022/06/24 07:57:05;;;;;;;3.70;2.05;;;;;;;27.34;40.06;100469.23;1795687;79;27190;-62
2022/06/24 07:59:35;;;;;;;3.15;2.00;;;;;;;27.54;40.11;100466.55;1808200;78;25614;-63
2022/06/24 08:02:05;;;;;;;2.65;1.80;;;;;;;27.63;39.57;100466.01;1802772;78;25650;-63
2022/06/24 08:04:31;;;;;;;2.37;1.72;;;;;;;27.77;39.50;100452.51;1819434;78;25696;-63
2022/06/24 08:06:58;;;;;;;2.12;1.80;;;;;;;28.00;39.26;100460.66;1816027;78;27906;-63
2022/06/24 08:09:31;;;;;;;3.47;1.82;;;;;;;28.20;39.39;100455.91;1819898;78;26277;-63
2022/06/24 08:11:57;;;;;;;2.98;1.52;;;;;;;28.46;38.65;100458.98;1818808;78;25624;-64
2022/06/24 08:14:23;;;;;;;3.00;1.52;;;;;;;28.64;37.82;100454.46;1819847;78;26296;-63
2022/06/24 08:16:50;;;;;;;2.02;1.50;;;;;;;28.84;37.68;100448.88;1810404;78;25676;-62
2022/06/24 08:19:17;;;;;;;3.92;2.05;;;;;;;28.96;35.92;100450.20;1819895;78;27298;-63
2022/06/24 08:21:43;;;;;;;3.98;1.80;;;;;;;28.96;36.15;100447.42;1818994;78;25678;-62
2022/06/24 08:24:09;;;;;;;2.55;1.80;;;;;;;29.05;35.94;100440.67;1813063;78;25854;-62
2022/06/24 08:26:35;;;;;;;3.77;2.05;;;;;;;29.02;35.80;100440.91;1808408;78;25674;-63
2022/06/24 08:29:03;;;;;;;2.20;1.82;;;;;;;29.19;35.82;100440.34;1800696;78;25677;-63
2022/06/24 08:31:29;;;;;;;3.52;2.00;;;;;;;29.36;35.16;100439.75;1801642;78;27972;-63
2022/06/24 08:33:55;;;;;;;3.20;2.10;;;;;;;29.49;35.66;100442.63;1796918;78;25605;-65
2022/06/24 08:36:25;;;;;;;2.87;1.95;;;;;;;29.59;34.93;100446.35;1812385;78;25642;-65
2022/06/24 08:38:49;;;;;;;1.73;1.63;;;;;;;29.54;34.84;100440.72;1808653;77;25730;-65
2022/06/24 08:41:20;;;;;;;3.92;2.17;;;;;;;29.79;34.61;100454.64;1798764;78;25746;-65
2022/06/24 08:43:50;;;;;;;2.83;1.92;;;;;;;29.49;34.47;100432.08;1787867;78;27372;-64
2022/06/24 08:46:17;;;;;;;5.15;1.80;;;;;;;29.44;34.71;100427.84;1792792;78;25588;-64
2022/06/24 08:48:44;;;;;;;6.25;2.58;;;;;;;29.69;35.05;100418.82;1820128;78;25459;-65
2022/06/24 08:51:13;;;;;;;2.77;1.75;;;;;;;29.98;34.07;100422.27;1817646;78;25686;-64
2022/06/24 08:53:39;;;;;;;2.42;1.70;;;;;;;30.18;34.14;100421.51;1781427;78;25503;-64
2022/06/24 08:56:08;;;;;;;3.40;1.62;;;;;;;30.31;33.44;100418.00;1786212;79;28037;-63
2022/06/24 08:58:35;;;;;;;2.00;1.52;;;;;;;30.39;33.31;100421.38;1801933;79;25407;-63
2022/06/24 09:01:02;;;;;;;3.58;1.62;;;;;;;30.43;33.09;100419.28;1801770;79;25694;-64
2022/06/24 09:03:28;;;;;;;2.60;1.85;;;;;;;30.54;32.83;100416.31;1801833;79;26371;-64
2022/06/24 09:05:54;;;;;;;3.83;1.62;;;;;;;30.64;32.37;100421.42;1801749;79;25607;-64
2022/06/24 09:08:20;;;;;;;1.60;1.50;;;;;;;30.68;32.32;100417.92;1791083;78;28137;-64
2022/06/24 09:11:06;;;;;;;3.50;1.75;;;;;;;30.69;32.17;100422.88;1801736;79;25589;-63
2022/06/24 09:13:55;;;;;;;2.92;2.20;;;;;;;30.66;32.36;100416.80;1801729;79;25705;-63
2022/06/24 09:16:20;;;;;;;1.80;1.70;;;;;;;30.81;33.05;100409.55;1801877;79;25782;-64
2022/06/24 09:18:52;;;;;;;1.87;1.77;;;;;;;31.23;32.51;100402.46;1779359;79;25833;-64
2022/06/24 09:21:36;;;;;;;4.58;1.57;;;;;;;31.50;32.35;100396.19;1801797;79;27464;-65
2022/06/24 09:24:00;;;;;;;2.12;1.92;;;;;;;31.68;31.60;100403.37;1799554;79;25866;-64
2022/06/24 09:26:34;;;;;;;5.62;1.55;;;;;;;31.68;31.09;100392.20;1801865;79;25722;-64
2022/06/24 09:29:03;;;;;;;1.90;1.55;;;;;;;31.69;30.74;100391.57;1801801;79;25634;-65
2022/06/24 09:31:31;;;;;;;2.42;1.67;;;;;;;31.61;30.37;100389.03;1801232;79;25742;-65
2022/06/24 09:34:14;;;;;;;2.60;1.30;;;;;;;31.44;30.26;100400.19;1802013;79;27304;-64
2022/06/24 09:36:45;;;;;;;4.33;1.77;;;;;;;31.55;30.89;100397.84;1801116;79;25632;-65
2022/06/24 09:39:15;;;;;;;4.90;1.75;;;;;;;31.93;30.81;100410.89;1801747;79;25543;-65
2022/06/24 09:41:55;;;;;;;5.08;1.47;;;;;;;31.92;30.31;100382.75;1801403;78;25844;-65
2022/06/24 09:44:24;;;;;;;1.90;1.70;;;;;;;31.92;30.56;100388.97;1801727;79;25655;-65
2022/06/24 09:47:06;;;;;;;3.70;1.80;;;;;;;32.08;30.21;100383.83;1801810;79;28030;-65
2022/06/24 09:49:32;;;;;;;3.22;2.20;;;;;;;32.62;29.91;100405.00;1801618;79;25670;-65
2022/06/24 09:51:59;;;;;;;1.90;1.80;;;;;;;32.62;29.91;100405.00;1792579;79;25733;-65
2022/06/24 09:54:26;;;;;;;2.52;1.50;;;;;;;32.74;30.21;100382.34;1795158;78;25685;-65
2022/06/24 09:56:54;;;;;;;1.67;1.57;;;;;;;33.09;29.89;100374.52;1797621;78;25603;-65
2022/06/24 10:02:11;;;;;;;2.12;1.50;;;;;;;32.81;28.20;100367.28;1793093;78;25544;-65
2022/06/24 10:04:38;;;;;;;2.92;1.55;;;;;;;32.63;27.83;100365.98;1801367;78;25592;-65
2022/06/24 10:07:04;;;;;;;2.40;1.47;;;;;;;32.50;28.03;100366.03;1792336;78;25617;-65
2022/06/24 10:09:34;;;;;;;3.90;1.62;;;;;;;32.48;27.95;100364.31;1793009;79;25555;-65
2022/06/24 10:12:01;;;;;;;1.67;1.57;;;;;;;32.50;26.86;100347.84;1793606;78;29119;-65
2022/06/24 10:14:32;;;;;;;1.67;1.57;;;;;;;32.26;27.75;100357.98;1820124;78;25390;-65
2022/06/24 10:17:00;;;;;;;1.72;1.30;;;;;;;32.38;28.01;100376.08;1820253;78;25700;-65
2022/06/24 10:19:28;;;;;;;4.08;1.55;;;;;;;32.33;28.18;100360.51;1810872;78;25520;-65
2022/06/24 10:21:54;;;;;;;3.00;1.37;;;;;;;32.38;28.01;100351.52;1817078;78;25377;-65
2022/06/24 10:24:20;;;;;;;1.40;1.30;;;;;;;32.39;28.51;100353.09;1820396;78;26998;-65
2022/06/24 10:26:51;;;;;;;2.12;1.50;;;;;;;32.42;28.14;100346.58;1819557;78;25690;-65
2022/06/24 10:29:21;;;;;;;5.33;1.52;;;;;;;32.28;27.34;100356.28;1808465;78;25610;-65
2022/06/24 10:34:31;;;;;;;4.00;1.50;;;;;;;31.84;27.68;100347.89;1820338;78;25589;-65
2022/06/24 10:37:16;;;;;;;1.50;1.27;;;;;;;31.81;28.25;100341.83;1820306;78;27936;-66
2022/06/24 10:39:53;;;;;;;4.42;1.40;;;;;;;31.83;28.08;100335.94;1815311;78;25630;-66
2022/06/24 10:42:21;;;;;;;3.45;1.90;;;;;;;31.93;28.46;100330.42;1792725;78;25421;-66
2022/06/24 10:44:59;;;;;;;4.35;2.10;;;;;;;31.88;28.68;100338.00;1797640;78;25642;-66
2022/06/24 10:47:37;;;;;;;3.12;1.40;;;;;;;31.94;28.63;100325.77;1797189;78;25646;-67
2022/06/24 10:50:12;;;;;;;1.80;1.70;;;;;;;32.15;28.01;100324.20;1808124;78;27963;-67
2022/06/24 10:52:51;;;;;;;3.47;1.32;;;;;;;32.23;28.49;100324.70;1799482;78;25632;-66
2022/06/24 10:58:00;;;;;;;1.50;1.40;;;;;;;32.16;28.00;100324.38;1801844;79;25713;-67
2022/06/24 11:00:50;;;;;;;1.30;1.12;;;;;;;32.12;27.72;100323.72;1802067;79;25742;-67
2022/06/24 11:03:27;;;;;;;2.58;1.60;;;;;;;31.97;27.09;100318.47;1801905;79;27332;-69
2022/06/24 11:05:54;;;;;;;4.87;1.57;;;;;;;31.77;27.68;100327.98;1801859;79;25833;-67
2022/06/24 11:08:24;;;;;;;3.83;2.08;;;;;;;31.74;28.21;100322.50;1801705;79;25383;-66
2022/06/24 11:10:52;;;;;;;2.70;1.30;;;;;;;31.97;27.61;100317.84;1792027;79;25819;-67
2022/06/24 11:13:21;;;;;;;1.37;1.20;;;;;;;31.97;28.06;100310.85;1801840;79;25724;-67
2022/06/24 11:15:58;;;;;;;3.15;1.47;;;;;;;32.16;27.57;100304.80;1801554;79;27372;-67
2022/06/24 11:18:31;;;;;;;2.90;1.50;;;;;;;31.93;27.04;100308.05;1791506;79;25473;-66
2022/06/24 11:21:04;;;;;;;1.85;1.40;;;;;;;31.93;28.11;100300.42;1801471;79;25678;-66
2022/06/24 11:23:40;;;;;;;2.72;1.40;;;;;;;31.93;28.11;100300.42;1801503;79;25697;-66
2022/06/24 11:26:16;;;;;;;4.70;1.37;;;;;;;32.23;27.79;100291.75;1801555;79;25736;-68
2022/06/24 11:28:51;;;;;;;2.40;1.55;;;;;;;32.50;27.44;100314.87;1801424;79;27812;-68
2022/06/24 11:31:24;;;;;;;5.37;1.42;;;;;;;32.43;26.45;100303.97;1797443;79;25777;-69
2022/06/24 11:34:08;;;;;;;1.80;1.70;;;;;;;32.23;26.52;100302.94;1801049;79;25637;-65
2022/06/24 11:36:38;;;;;;;1.50;1.40;;;;;;;32.07;26.48;100292.14;1800919;79;25645;-66
2022/06/24 11:39:09;;;;;;;4.50;1.50;;;;;;;31.88;27.08;100282.84;1801407;79;25697;-66
2022/06/24 11:41:39;;;;;;;1.60;1.50;;;;;;;32.06;27.05;100294.77;1792225;79;27319;-66
2022/06/24 11:44:06;;;;;;;1.75;1.50;;;;;;;32.16;27.06;100288.61;1801345;79;25697;-67
2022/06/24 11:46:32;;;;;;;3.50;1.50;;;;;;;32.17;26.45;100288.16;1778959;79;26372;-67